sensor_id;sensor_type;location;lat;lon;timestamp;temperature;humidity
57636;DHT22;43465;50.728;4.160;2023-01-08T00:00:50;12.10;99.90
57636;DHT22;43465;50.728;4.160;2023-01-08T00:03:16;11.70;99.90
57636;DHT22;43465;50.728;4.160;2023-01-08T00:05:42;11.40;99.90
57636;DHT22;43465;50.728;4.160;2023-01-08T00:08:08;10.90;99.90
57636;DHT22;43465;50.728;4.160;2023-01-08T00:10:35;10.40;99.90
57636;DHT22;43465;50.728;4.160;2023-01-08T00:13:01;10.00;99.90
57636;DHT22;43465;50.728;4.160;2023-01-08T00:15:26;9.60;99.90
57636;DHT22;43465;50.728;4.160;2023-01-08T00:17:53;9.40;99.90
57636;DHT22;43465;50.728;4.160;2023-01-08T00:20:18;9.20;99.90
57636;DHT22;43465;50.728;4.160;2023-01-08T00:22:50;9.10;99.90
57636;DHT22;43465;50.728;4.160;2023-01-08T00:25:16;9.00;99.90
57636;DHT22;43465;50.728;4.160;2023-01-08T00:27:43;9.00;99.90
57636;DHT22;43465;50.728;4.160;2023-01-08T00:30:10;8.90;99.90
57636;DHT22;43465;50.728;4.160;2023-01-08T00:32:36;8.90;99.90
57636;DHT22;43465;50.728;4.160;2023-01-08T00:35:02;9.00;99.90
57636;DHT22;43465;50.728;4.160;2023-01-08T00:37:28;9.00;99.90
57636;DHT22;43465;50.728;4.160;2023-01-08T00:39:53;9.10;99.90
57636;DHT22;43465;50.728;4.160;2023-01-08T00:42:19;9.30;99.90
57636;DHT22;43465;50.728;4.160;2023-01-08T00:44:45;9.50;99.90
57636;DHT22;43465;50.728;4.160;2023-01-08T00:47:10;9.60;99.90
57636;DHT22;43465;50.728;4.160;2023-01-08T00:49:36;9.70;99.90
57636;DHT22;43465;50.728;4.160;2023-01-08T00:52:02;9.80;99.90
57636;DHT22;43465;50.728;4.160;2023-01-08T00:54:28;9.90;99.90
57636;DHT22;43465;50.728;4.160;2023-01-08T00:56:54;9.90;99.90
57636;DHT22;43465;50.728;4.160;2023-01-08T00:59:20;9.80;99.90
57636;DHT22;43465;50.728;4.160;2023-01-08T01:01:46;9.80;99.90
57636;DHT22;43465;50.728;4.160;2023-01-08T01:04:12;9.60;99.90
57636;DHT22;43465;50.728;4.160;2023-01-08T01:06:40;9.60;99.90
57636;DHT22;43465;50.728;4.160;2023-01-08T01:09:06;9.50;99.90
57636;DHT22;43465;50.728;4.160;2023-01-08T01:11:31;9.50;99.90
57636;DHT22;43465;50.728;4.160;2023-01-08T01:13:57;9.50;99.90
57636;DHT22;43465;50.728;4.160;2023-01-08T01:16:23;9.50;99.90
57636;DHT22;43465;50.728;4.160;2023-01-08T01:18:49;9.50;99.90
57636;DHT22;43465;50.728;4.160;2023-01-08T01:21:28;9.50;99.90
57636;DHT22;43465;50.728;4.160;2023-01-08T01:23:56;9.50;99.90
57636;DHT22;43465;50.728;4.160;2023-01-08T01:26:23;9.60;99.90
57636;DHT22;43465;50.728;4.160;2023-01-08T01:28:51;9.70;99.90
57636;DHT22;43465;50.728;4.160;2023-01-08T01:31:18;9.80;99.90
57636;DHT22;43465;50.728;4.160;2023-01-08T01:33:44;9.80;99.90
57636;DHT22;43465;50.728;4.160;2023-01-08T01:36:15;9.80;99.90
57636;DHT22;43465;50.728;4.160;2023-01-08T01:38:42;9.80;99.90
57636;DHT22;43465;50.728;4.160;2023-01-08T01:41:30;9.90;99.90
57636;DHT22;43465;50.728;4.160;2023-01-08T01:43:58;10.00;99.90
57636;DHT22;43465;50.728;4.160;2023-01-08T01:46:37;10.00;99.90
57636;DHT22;43465;50.728;4.160;2023-01-08T01:49:13;10.00;99.90
57636;DHT22;43465;50.728;4.160;2023-01-08T01:51:46;10.00;99.90
57636;DHT22;43465;50.728;4.160;2023-01-08T01:54:13;10.00;99.90
57636;DHT22;43465;50.728;4.160;2023-01-08T01:56:42;9.90;99.90
57636;DHT22;43465;50.728;4.160;2023-01-08T01:59:09;9.90;99.90
57636;DHT22;43465;50.728;4.160;2023-01-08T02:01:35;9.90;99.90
57636;DHT22;43465;50.728;4.160;2023-01-08T02:04:02;10.00;99.90
57636;DHT22;43465;50.728;4.160;2023-01-08T02:06:35;10.00;99.90
57636;DHT22;43465;50.728;4.160;2023-01-08T02:09:31;10.00;99.90
57636;DHT22;43465;50.728;4.160;2023-01-08T02:12:08;10.00;99.90
57636;DHT22;43465;50.728;4.160;2023-01-08T02:20:31;10.10;99.90
57636;DHT22;43465;50.728;4.160;2023-01-08T02:23:22;10.10;99.90
57636;DHT22;43465;50.728;4.160;2023-01-08T02:26:09;10.00;99.90
57636;DHT22;43465;50.728;4.160;2023-01-08T02:28:42;9.90;99.90
57636;DHT22;43465;50.728;4.160;2023-01-08T02:31:10;9.80;99.90
57636;DHT22;43465;50.728;4.160;2023-01-08T02:33:37;9.80;99.90
57636;DHT22;43465;50.728;4.160;2023-01-08T02:46:59;9.90;99.90
57636;DHT22;43465;50.728;4.160;2023-01-08T02:49:29;9.90;99.90
57636;DHT22;43465;50.728;4.160;2023-01-08T02:51:56;9.90;99.90
57636;DHT22;43465;50.728;4.160;2023-01-08T02:54:28;10.00;99.90
57636;DHT22;43465;50.728;4.160;2023-01-08T02:56:59;10.10;99.90
57636;DHT22;43465;50.728;4.160;2023-01-08T02:59:29;10.10;99.90
57636;DHT22;43465;50.728;4.160;2023-01-08T03:01:56;10.10;99.90
57636;DHT22;43465;50.728;4.160;2023-01-08T03:04:23;10.00;99.90
57636;DHT22;43465;50.728;4.160;2023-01-08T03:06:49;10.00;99.90
57636;DHT22;43465;50.728;4.160;2023-01-08T03:09:15;10.00;99.90
57636;DHT22;43465;50.728;4.160;2023-01-08T03:12:04;10.00;99.90
57636;DHT22;43465;50.728;4.160;2023-01-08T03:14:49;10.00;99.90
57636;DHT22;43465;50.728;4.160;2023-01-08T03:17:24;10.00;99.90
57636;DHT22;43465;50.728;4.160;2023-01-08T03:20:13;10.00;99.90
57636;DHT22;43465;50.728;4.160;2023-01-08T03:22:41;10.00;99.90
57636;DHT22;43465;50.728;4.160;2023-01-08T03:25:09;10.00;99.90
57636;DHT22;43465;50.728;4.160;2023-01-08T03:27:42;9.90;99.90
57636;DHT22;43465;50.728;4.160;2023-01-08T03:30:09;9.90;99.90
57636;DHT22;43465;50.728;4.160;2023-01-08T03:32:35;10.00;99.90
57636;DHT22;43465;50.728;4.160;2023-01-08T03:35:04;10.00;99.90
57636;DHT22;43465;50.728;4.160;2023-01-08T03:37:34;10.10;99.90
57636;DHT22;43465;50.728;4.160;2023-01-08T03:40:11;10.10;99.90
57636;DHT22;43465;50.728;4.160;2023-01-08T03:42:38;10.10;99.90
57636;DHT22;43465;50.728;4.160;2023-01-08T03:45:04;10.10;99.90
57636;DHT22;43465;50.728;4.160;2023-01-08T03:47:31;10.10;99.90
57636;DHT22;43465;50.728;4.160;2023-01-08T03:50:01;10.10;99.90
57636;DHT22;43465;50.728;4.160;2023-01-08T03:52:30;10.20;99.90
57636;DHT22;43465;50.728;4.160;2023-01-08T03:54:56;10.20;99.90
57636;DHT22;43465;50.728;4.160;2023-01-08T03:57:22;10.20;99.90
57636;DHT22;43465;50.728;4.160;2023-01-08T03:59:47;10.20;99.90
57636;DHT22;43465;50.728;4.160;2023-01-08T04:02:13;10.20;99.90
57636;DHT22;43465;50.728;4.160;2023-01-08T04:04:39;10.20;99.90
57636;DHT22;43465;50.728;4.160;2023-01-08T04:07:06;10.20;99.90
57636;DHT22;43465;50.728;4.160;2023-01-08T04:09:32;10.20;99.90
57636;DHT22;43465;50.728;4.160;2023-01-08T04:11:58;10.10;99.90
57636;DHT22;43465;50.728;4.160;2023-01-08T04:14:23;10.10;99.90
57636;DHT22;43465;50.728;4.160;2023-01-08T04:16:49;10.10;99.90
57636;DHT22;43465;50.728;4.160;2023-01-08T04:19:14;10.10;99.90
57636;DHT22;43465;50.728;4.160;2023-01-08T04:21:40;10.10;99.90
57636;DHT22;43465;50.728;4.160;2023-01-08T04:24:06;10.10;99.90
57636;DHT22;43465;50.728;4.160;2023-01-08T04:26:32;10.10;99.90
57636;DHT22;43465;50.728;4.160;2023-01-08T04:29:00;10.00;99.90
57636;DHT22;43465;50.728;4.160;2023-01-08T04:31:26;10.00;99.90
57636;DHT22;43465;50.728;4.160;2023-01-08T04:33:52;9.90;99.90
57636;DHT22;43465;50.728;4.160;2023-01-08T04:36:17;9.90;99.90
57636;DHT22;43465;50.728;4.160;2023-01-08T04:38:43;9.80;99.90
57636;DHT22;43465;50.728;4.160;2023-01-08T04:41:08;9.80;99.90
57636;DHT22;43465;50.728;4.160;2023-01-08T04:43:34;9.80;99.90
57636;DHT22;43465;50.728;4.160;2023-01-08T04:46:01;9.80;99.90
57636;DHT22;43465;50.728;4.160;2023-01-08T04:48:27;9.70;99.90
57636;DHT22;43465;50.728;4.160;2023-01-08T04:50:53;9.70;99.90
57636;DHT22;43465;50.728;4.160;2023-01-08T04:53:19;9.70;99.90
57636;DHT22;43465;50.728;4.160;2023-01-08T04:55:45;9.60;99.90
57636;DHT22;43465;50.728;4.160;2023-01-08T04:58:11;9.60;99.90
57636;DHT22;43465;50.728;4.160;2023-01-08T05:00:38;9.60;99.90
57636;DHT22;43465;50.728;4.160;2023-01-08T05:03:04;9.60;99.90
57636;DHT22;43465;50.728;4.160;2023-01-08T05:05:30;9.60;99.90
57636;DHT22;43465;50.728;4.160;2023-01-08T05:07:55;9.60;99.90
57636;DHT22;43465;50.728;4.160;2023-01-08T05:10:21;9.60;99.90
57636;DHT22;43465;50.728;4.160;2023-01-08T05:12:47;9.60;99.90
57636;DHT22;43465;50.728;4.160;2023-01-08T05:15:12;9.50;99.90
57636;DHT22;43465;50.728;4.160;2023-01-08T05:17:38;9.50;99.90
57636;DHT22;43465;50.728;4.160;2023-01-08T05:20:04;9.50;99.90
57636;DHT22;43465;50.728;4.160;2023-01-08T05:22:29;9.40;99.90
57636;DHT22;43465;50.728;4.160;2023-01-08T05:24:55;9.40;99.90
57636;DHT22;43465;50.728;4.160;2023-01-08T05:27:21;9.40;99.90
57636;DHT22;43465;50.728;4.160;2023-01-08T05:29:46;9.50;99.90
57636;DHT22;43465;50.728;4.160;2023-01-08T05:32:16;9.40;99.90
57636;DHT22;43465;50.728;4.160;2023-01-08T05:34:43;9.40;99.90
57636;DHT22;43465;50.728;4.160;2023-01-08T05:37:09;9.40;99.90
57636;DHT22;43465;50.728;4.160;2023-01-08T05:39:35;9.40;99.90
57636;DHT22;43465;50.728;4.160;2023-01-08T05:42:01;9.30;99.90
57636;DHT22;43465;50.728;4.160;2023-01-08T05:44:27;9.40;99.90
57636;DHT22;43465;50.728;4.160;2023-01-08T05:46:53;9.30;99.90
57636;DHT22;43465;50.728;4.160;2023-01-08T05:49:18;9.30;99.90
57636;DHT22;43465;50.728;4.160;2023-01-08T05:51:46;9.30;99.90
57636;DHT22;43465;50.728;4.160;2023-01-08T05:54:12;9.30;99.90
57636;DHT22;43465;50.728;4.160;2023-01-08T05:56:38;9.30;99.90
57636;DHT22;43465;50.728;4.160;2023-01-08T05:59:04;9.30;99.90
57636;DHT22;43465;50.728;4.160;2023-01-08T06:01:31;9.30;99.90
57636;DHT22;43465;50.728;4.160;2023-01-08T06:03:57;9.30;99.90
57636;DHT22;43465;50.728;4.160;2023-01-08T06:06:23;9.30;99.90
57636;DHT22;43465;50.728;4.160;2023-01-08T06:08:49;9.30;99.90
57636;DHT22;43465;50.728;4.160;2023-01-08T06:11:14;9.30;99.90
57636;DHT22;43465;50.728;4.160;2023-01-08T06:13:42;9.30;99.90
57636;DHT22;43465;50.728;4.160;2023-01-08T06:16:08;9.20;99.90
57636;DHT22;43465;50.728;4.160;2023-01-08T06:18:34;9.30;99.90
57636;DHT22;43465;50.728;4.160;2023-01-08T06:21:01;9.30;99.90
57636;DHT22;43465;50.728;4.160;2023-01-08T06:23:26;9.40;99.90
57636;DHT22;43465;50.728;4.160;2023-01-08T06:25:53;9.40;99.90
57636;DHT22;43465;50.728;4.160;2023-01-08T06:28:19;9.40;99.90
57636;DHT22;43465;50.728;4.160;2023-01-08T06:30:45;9.40;99.90
57636;DHT22;43465;50.728;4.160;2023-01-08T06:33:11;9.50;99.90
57636;DHT22;43465;50.728;4.160;2023-01-08T06:35:36;9.50;99.90
57636;DHT22;43465;50.728;4.160;2023-01-08T06:38:02;9.50;99.90
57636;DHT22;43465;50.728;4.160;2023-01-08T06:40:27;9.60;99.90
57636;DHT22;43465;50.728;4.160;2023-01-08T06:42:53;9.60;99.90
57636;DHT22;43465;50.728;4.160;2023-01-08T06:45:19;9.60;99.90
57636;DHT22;43465;50.728;4.160;2023-01-08T06:47:44;9.60;99.90
57636;DHT22;43465;50.728;4.160;2023-01-08T06:50:10;9.60;99.90
57636;DHT22;43465;50.728;4.160;2023-01-08T06:52:37;9.50;99.90
57636;DHT22;43465;50.728;4.160;2023-01-08T06:55:03;9.60;99.90
57636;DHT22;43465;50.728;4.160;2023-01-08T06:57:30;9.60;99.90
57636;DHT22;43465;50.728;4.160;2023-01-08T06:59:56;9.50;99.90
57636;DHT22;43465;50.728;4.160;2023-01-08T07:02:22;9.60;99.90
57636;DHT22;43465;50.728;4.160;2023-01-08T07:04:48;9.60;99.90
57636;DHT22;43465;50.728;4.160;2023-01-08T07:07:14;9.60;99.90
57636;DHT22;43465;50.728;4.160;2023-01-08T07:09:41;9.70;99.90
57636;DHT22;43465;50.728;4.160;2023-01-08T07:12:11;9.70;99.90
57636;DHT22;43465;50.728;4.160;2023-01-08T07:14:36;9.70;99.90
57636;DHT22;43465;50.728;4.160;2023-01-08T07:17:02;9.70;99.90
57636;DHT22;43465;50.728;4.160;2023-01-08T07:19:28;9.80;99.90
57636;DHT22;43465;50.728;4.160;2023-01-08T07:21:53;9.80;99.90
57636;DHT22;43465;50.728;4.160;2023-01-08T07:24:19;9.80;99.90
57636;DHT22;43465;50.728;4.160;2023-01-08T07:26:44;9.80;99.90
57636;DHT22;43465;50.728;4.160;2023-01-08T07:29:10;9.90;99.90
57636;DHT22;43465;50.728;4.160;2023-01-08T07:31:36;9.90;99.90
57636;DHT22;43465;50.728;4.160;2023-01-08T07:34:01;9.90;99.90
57636;DHT22;43465;50.728;4.160;2023-01-08T07:36:27;9.90;99.90
57636;DHT22;43465;50.728;4.160;2023-01-08T07:38:52;9.80;99.90
57636;DHT22;43465;50.728;4.160;2023-01-08T07:41:18;9.90;99.90
57636;DHT22;43465;50.728;4.160;2023-01-08T07:43:46;9.80;99.90
57636;DHT22;43465;50.728;4.160;2023-01-08T07:46:12;9.80;99.90
57636;DHT22;43465;50.728;4.160;2023-01-08T07:48:37;9.90;99.90
57636;DHT22;43465;50.728;4.160;2023-01-08T07:51:05;9.90;99.90
57636;DHT22;43465;50.728;4.160;2023-01-08T07:53:31;9.90;99.90
57636;DHT22;43465;50.728;4.160;2023-01-08T07:56:04;9.90;99.90
57636;DHT22;43465;50.728;4.160;2023-01-08T07:58:31;9.90;99.90
57636;DHT22;43465;50.728;4.160;2023-01-08T08:00:57;10.00;99.90
57636;DHT22;43465;50.728;4.160;2023-01-08T08:03:23;10.00;99.90
57636;DHT22;43465;50.728;4.160;2023-01-08T08:05:49;10.10;99.90
57636;DHT22;43465;50.728;4.160;2023-01-08T08:08:15;10.10;99.90
57636;DHT22;43465;50.728;4.160;2023-01-08T08:10:42;10.20;99.90
57636;DHT22;43465;50.728;4.160;2023-01-08T08:13:09;10.20;99.90
57636;DHT22;43465;50.728;4.160;2023-01-08T08:15:35;10.20;99.90
57636;DHT22;43465;50.728;4.160;2023-01-08T08:18:01;10.30;99.90
57636;DHT22;43465;50.728;4.160;2023-01-08T08:20:27;10.30;99.90
57636;DHT22;43465;50.728;4.160;2023-01-08T08:23:03;10.30;99.90
57636;DHT22;43465;50.728;4.160;2023-01-08T08:25:29;10.30;99.90
57636;DHT22;43465;50.728;4.160;2023-01-08T08:27:58;10.30;99.90
57636;DHT22;43465;50.728;4.160;2023-01-08T08:30:25;10.30;99.90
57636;DHT22;43465;50.728;4.160;2023-01-08T08:32:52;10.30;99.90
57636;DHT22;43465;50.728;4.160;2023-01-08T08:35:18;10.30;99.90
57636;DHT22;43465;50.728;4.160;2023-01-08T08:37:44;10.30;99.90
57636;DHT22;43465;50.728;4.160;2023-01-08T08:40:10;10.30;99.90
57636;DHT22;43465;50.728;4.160;2023-01-08T08:42:36;10.30;99.90
57636;DHT22;43465;50.728;4.160;2023-01-08T08:45:01;10.20;99.90
57636;DHT22;43465;50.728;4.160;2023-01-08T08:47:27;10.20;99.90
57636;DHT22;43465;50.728;4.160;2023-01-08T08:49:53;10.20;99.90
57636;DHT22;43465;50.728;4.160;2023-01-08T08:52:18;10.20;99.90
57636;DHT22;43465;50.728;4.160;2023-01-08T08:54:44;10.20;99.90
57636;DHT22;43465;50.728;4.160;2023-01-08T08:57:10;10.30;99.90
57636;DHT22;43465;50.728;4.160;2023-01-08T08:59:36;10.30;99.90
57636;DHT22;43465;50.728;4.160;2023-01-08T09:02:02;10.40;99.90
57636;DHT22;43465;50.728;4.160;2023-01-08T09:04:30;10.40;99.90
57636;DHT22;43465;50.728;4.160;2023-01-08T09:06:56;10.40;99.90
57636;DHT22;43465;50.728;4.160;2023-01-08T09:09:23;10.40;99.90
57636;DHT22;43465;50.728;4.160;2023-01-08T09:11:49;10.40;99.90
57636;DHT22;43465;50.728;4.160;2023-01-08T09:14:15;10.50;99.90
57636;DHT22;43465;50.728;4.160;2023-01-08T09:16:41;10.50;99.90
57636;DHT22;43465;50.728;4.160;2023-01-08T09:19:08;10.50;99.90
57636;DHT22;43465;50.728;4.160;2023-01-08T09:21:38;10.50;99.90
57636;DHT22;43465;50.728;4.160;2023-01-08T09:24:04;10.50;99.90
57636;DHT22;43465;50.728;4.160;2023-01-08T09:26:29;10.50;99.90
57636;DHT22;43465;50.728;4.160;2023-01-08T09:28:56;10.50;99.90
57636;DHT22;43465;50.728;4.160;2023-01-08T09:31:22;10.50;99.90
57636;DHT22;43465;50.728;4.160;2023-01-08T09:33:49;10.50;99.90
57636;DHT22;43465;50.728;4.160;2023-01-08T09:36:15;10.50;99.90
57636;DHT22;43465;50.728;4.160;2023-01-08T09:38:41;10.50;99.90
57636;DHT22;43465;50.728;4.160;2023-01-08T09:41:15;10.60;99.90
57636;DHT22;43465;50.728;4.160;2023-01-08T09:43:44;10.50;99.90
57636;DHT22;43465;50.728;4.160;2023-01-08T09:46:11;10.50;99.90
57636;DHT22;43465;50.728;4.160;2023-01-08T09:48:39;10.50;99.90
57636;DHT22;43465;50.728;4.160;2023-01-08T09:51:16;10.50;99.90
57636;DHT22;43465;50.728;4.160;2023-01-08T09:53:43;10.60;99.90
57636;DHT22;43465;50.728;4.160;2023-01-08T09:56:17;10.60;99.90
57636;DHT22;43465;50.728;4.160;2023-01-08T10:01:26;10.60;99.90
57636;DHT22;43465;50.728;4.160;2023-01-08T10:04:10;10.60;99.90
57636;DHT22;43465;50.728;4.160;2023-01-08T10:06:36;10.60;99.90
57636;DHT22;43465;50.728;4.160;2023-01-08T10:09:02;10.50;99.90
57636;DHT22;43465;50.728;4.160;2023-01-08T10:11:38;10.60;99.90
57636;DHT22;43465;50.728;4.160;2023-01-08T10:14:41;10.60;99.90
57636;DHT22;43465;50.728;4.160;2023-01-08T10:19:43;10.80;99.90
57636;DHT22;43465;50.728;4.160;2023-01-08T10:22:12;10.80;99.90
57636;DHT22;43465;50.728;4.160;2023-01-08T10:24:38;11.00;99.90
57636;DHT22;43465;50.728;4.160;2023-01-08T10:27:08;11.00;99.90
57636;DHT22;43465;50.728;4.160;2023-01-08T10:29:36;10.90;99.90
57636;DHT22;43465;50.728;4.160;2023-01-08T10:32:24;10.90;99.90
57636;DHT22;43465;50.728;4.160;2023-01-08T10:34:54;10.90;99.90
57636;DHT22;43465;50.728;4.160;2023-01-08T10:39:47;10.90;99.90
57636;DHT22;43465;50.728;4.160;2023-01-08T10:42:14;11.00;99.90
57636;DHT22;43465;50.728;4.160;2023-01-08T10:45:02;11.00;99.90
57636;DHT22;43465;50.728;4.160;2023-01-08T10:47:32;11.10;99.90
57636;DHT22;43465;50.728;4.160;2023-01-08T10:50:02;11.00;99.90
57636;DHT22;43465;50.728;4.160;2023-01-08T10:52:31;11.00;99.90
57636;DHT22;43465;50.728;4.160;2023-01-08T10:55:28;11.00;99.90
57636;DHT22;43465;50.728;4.160;2023-01-08T10:58:14;11.00;99.90
57636;DHT22;43465;50.728;4.160;2023-01-08T11:00:40;11.00;99.90
57636;DHT22;43465;50.728;4.160;2023-01-08T11:03:27;11.00;99.90
57636;DHT22;43465;50.728;4.160;2023-01-08T11:05:53;11.00;99.90
57636;DHT22;43465;50.728;4.160;2023-01-08T11:08:20;11.10;99.90
57636;DHT22;43465;50.728;4.160;2023-01-08T11:10:58;11.00;99.90
57636;DHT22;43465;50.728;4.160;2023-01-08T11:13:25;10.90;99.90
57636;DHT22;43465;50.728;4.160;2023-01-08T11:16:03;10.80;99.90
57636;DHT22;43465;50.728;4.160;2023-01-08T11:18:30;10.90;99.90
57636;DHT22;43465;50.728;4.160;2023-01-08T11:21:09;10.90;99.90
57636;DHT22;43465;50.728;4.160;2023-01-08T11:23:35;11.00;99.90
57636;DHT22;43465;50.728;4.160;2023-01-08T11:26:09;11.00;99.90
57636;DHT22;43465;50.728;4.160;2023-01-08T11:31:32;11.00;99.90
57636;DHT22;43465;50.728;4.160;2023-01-08T11:34:06;11.10;99.90
57636;DHT22;43465;50.728;4.160;2023-01-08T11:36:46;11.20;99.90
57636;DHT22;43465;50.728;4.160;2023-01-08T11:39:13;11.20;99.90
57636;DHT22;43465;50.728;4.160;2023-01-08T11:50:40;11.40;99.90
57636;DHT22;43465;50.728;4.160;2023-01-08T11:53:30;11.30;99.90
57636;DHT22;43465;50.728;4.160;2023-01-08T12:04:52;11.40;99.90
57636;DHT22;43465;50.728;4.160;2023-01-08T12:07:35;11.50;99.90
57636;DHT22;43465;50.728;4.160;2023-01-08T12:26:52;11.20;99.90
57636;DHT22;43465;50.728;4.160;2023-01-08T12:40:05;11.30;99.90
57636;DHT22;43465;50.728;4.160;2023-01-08T12:42:40;11.30;99.90
57636;DHT22;43465;50.728;4.160;2023-01-08T12:45:17;11.30;99.90
57636;DHT22;43465;50.728;4.160;2023-01-08T12:47:48;11.30;99.90
57636;DHT22;43465;50.728;4.160;2023-01-08T12:50:23;11.30;99.90
57636;DHT22;43465;50.728;4.160;2023-01-08T12:52:58;11.30;99.90
57636;DHT22;43465;50.728;4.160;2023-01-08T12:58:10;11.30;99.90
57636;DHT22;43465;50.728;4.160;2023-01-08T13:00:42;11.40;99.90
57636;DHT22;43465;50.728;4.160;2023-01-08T13:03:20;11.50;99.90
57636;DHT22;43465;50.728;4.160;2023-01-08T13:05:46;11.60;99.90
57636;DHT22;43465;50.728;4.160;2023-01-08T13:08:25;11.70;99.90
57636;DHT22;43465;50.728;4.160;2023-01-08T13:10:54;11.70;99.90
57636;DHT22;43465;50.728;4.160;2023-01-08T13:13:35;11.70;99.90
57636;DHT22;43465;50.728;4.160;2023-01-08T13:18:38;11.70;99.90
57636;DHT22;43465;50.728;4.160;2023-01-08T13:21:11;11.60;99.90
57636;DHT22;43465;50.728;4.160;2023-01-08T13:23:37;11.60;99.90
57636;DHT22;43465;50.728;4.160;2023-01-08T13:26:05;11.60;99.90
57636;DHT22;43465;50.728;4.160;2023-01-08T13:33:46;11.70;99.90
57636;DHT22;43465;50.728;4.160;2023-01-08T13:41:44;11.70;99.90
57636;DHT22;43465;50.728;4.160;2023-01-08T13:46:59;11.90;99.90
57636;DHT22;43465;50.728;4.160;2023-01-08T13:49:26;12.00;99.90
57636;DHT22;43465;50.728;4.160;2023-01-08T13:51:52;11.90;99.90
57636;DHT22;43465;50.728;4.160;2023-01-08T13:54:24;11.90;99.90
57636;DHT22;43465;50.728;4.160;2023-01-08T13:56:54;11.90;99.90
57636;DHT22;43465;50.728;4.160;2023-01-08T13:59:48;11.90;99.90
57636;DHT22;43465;50.728;4.160;2023-01-08T14:02:32;11.90;99.90
57636;DHT22;43465;50.728;4.160;2023-01-08T14:05:00;12.00;99.90
57636;DHT22;43465;50.728;4.160;2023-01-08T14:07:27;12.00;99.90
57636;DHT22;43465;50.728;4.160;2023-01-08T14:09:53;12.00;99.90
57636;DHT22;43465;50.728;4.160;2023-01-08T14:12:23;12.10;99.90
57636;DHT22;43465;50.728;4.160;2023-01-08T14:14:54;12.20;99.90
57636;DHT22;43465;50.728;4.160;2023-01-08T14:17:28;12.30;99.90
57636;DHT22;43465;50.728;4.160;2023-01-08T14:19:54;12.20;99.90
57636;DHT22;43465;50.728;4.160;2023-01-08T14:22:25;12.30;99.90
57636;DHT22;43465;50.728;4.160;2023-01-08T14:24:56;12.30;99.90
57636;DHT22;43465;50.728;4.160;2023-01-08T14:27:27;12.40;99.90
57636;DHT22;43465;50.728;4.160;2023-01-08T14:29:53;12.50;99.90
57636;DHT22;43465;50.728;4.160;2023-01-08T14:32:31;12.50;99.90
57636;DHT22;43465;50.728;4.160;2023-01-08T14:35:06;12.60;99.90
57636;DHT22;43465;50.728;4.160;2023-01-08T14:37:34;12.70;99.90
57636;DHT22;43465;50.728;4.160;2023-01-08T14:40:00;12.80;99.90
57636;DHT22;43465;50.728;4.160;2023-01-08T14:42:43;12.80;99.90
57636;DHT22;43465;50.728;4.160;2023-01-08T14:45:33;12.70;99.90
57636;DHT22;43465;50.728;4.160;2023-01-08T14:48:28;12.40;99.90
57636;DHT22;43465;50.728;4.160;2023-01-08T14:51:06;12.20;99.90
57636;DHT22;43465;50.728;4.160;2023-01-08T14:53:53;11.90;99.90
57636;DHT22;43465;50.728;4.160;2023-01-08T14:56:29;11.80;99.90
57636;DHT22;43465;50.728;4.160;2023-01-08T14:58:59;11.70;99.90
57636;DHT22;43465;50.728;4.160;2023-01-08T15:01:30;11.70;99.90
57636;DHT22;43465;50.728;4.160;2023-01-08T15:04:11;11.60;99.90
57636;DHT22;43465;50.728;4.160;2023-01-08T15:06:38;11.50;99.90
57636;DHT22;43465;50.728;4.160;2023-01-08T15:09:19;11.50;99.90
57636;DHT22;43465;50.728;4.160;2023-01-08T15:11:54;11.50;99.90
57636;DHT22;43465;50.728;4.160;2023-01-08T15:14:28;11.40;99.90
57636;DHT22;43465;50.728;4.160;2023-01-08T15:17:10;11.50;99.90
57636;DHT22;43465;50.728;4.160;2023-01-08T15:19:44;11.50;99.90
57636;DHT22;43465;50.728;4.160;2023-01-08T15:22:21;11.40;99.90
57636;DHT22;43465;50.728;4.160;2023-01-08T15:25:18;11.40;99.90
57636;DHT22;43465;50.728;4.160;2023-01-08T15:27:57;11.40;99.90
57636;DHT22;43465;50.728;4.160;2023-01-08T15:30:35;11.40;99.90
57636;DHT22;43465;50.728;4.160;2023-01-08T15:33:21;11.40;99.90
57636;DHT22;43465;50.728;4.160;2023-01-08T15:35:50;11.40;99.90
57636;DHT22;43465;50.728;4.160;2023-01-08T15:38:16;11.40;99.90
57636;DHT22;43465;50.728;4.160;2023-01-08T15:40:54;11.40;99.90
57636;DHT22;43465;50.728;4.160;2023-01-08T15:43:24;11.40;99.90
57636;DHT22;43465;50.728;4.160;2023-01-08T15:45:50;11.40;99.90
57636;DHT22;43465;50.728;4.160;2023-01-08T15:48:16;11.40;99.90
57636;DHT22;43465;50.728;4.160;2023-01-08T15:50:44;11.40;99.90
57636;DHT22;43465;50.728;4.160;2023-01-08T15:53:30;11.40;99.90
57636;DHT22;43465;50.728;4.160;2023-01-08T15:55:56;11.40;99.90
57636;DHT22;43465;50.728;4.160;2023-01-08T15:58:21;11.30;99.90
57636;DHT22;43465;50.728;4.160;2023-01-08T16:00:47;11.20;99.90
57636;DHT22;43465;50.728;4.160;2023-01-08T16:03:14;11.20;99.90
57636;DHT22;43465;50.728;4.160;2023-01-08T16:05:39;11.20;99.90
57636;DHT22;43465;50.728;4.160;2023-01-08T16:08:05;11.20;99.90
57636;DHT22;43465;50.728;4.160;2023-01-08T16:10:32;11.20;99.90
57636;DHT22;43465;50.728;4.160;2023-01-08T16:12:59;11.20;99.90
57636;DHT22;43465;50.728;4.160;2023-01-08T16:15:25;11.20;99.90
57636;DHT22;43465;50.728;4.160;2023-01-08T16:17:52;11.10;99.90
57636;DHT22;43465;50.728;4.160;2023-01-08T16:20:18;11.10;99.90
57636;DHT22;43465;50.728;4.160;2023-01-08T16:22:43;11.00;99.90
57636;DHT22;43465;50.728;4.160;2023-01-08T16:25:09;11.00;99.90
57636;DHT22;43465;50.728;4.160;2023-01-08T16:27:35;10.90;99.90
57636;DHT22;43465;50.728;4.160;2023-01-08T16:30:03;10.90;99.90
57636;DHT22;43465;50.728;4.160;2023-01-08T16:32:29;10.90;99.90
57636;DHT22;43465;50.728;4.160;2023-01-08T16:34:55;10.90;99.90
57636;DHT22;43465;50.728;4.160;2023-01-08T16:37:21;10.80;99.90
57636;DHT22;43465;50.728;4.160;2023-01-08T16:39:47;10.80;99.90
57636;DHT22;43465;50.728;4.160;2023-01-08T16:42:13;10.80;99.90
57636;DHT22;43465;50.728;4.160;2023-01-08T16:44:39;10.70;99.90
57636;DHT22;43465;50.728;4.160;2023-01-08T16:47:05;10.70;99.90
57636;DHT22;43465;50.728;4.160;2023-01-08T16:49:31;10.60;99.90
57636;DHT22;43465;50.728;4.160;2023-01-08T16:51:57;10.60;99.90
57636;DHT22;43465;50.728;4.160;2023-01-08T16:54:23;10.60;99.90
57636;DHT22;43465;50.728;4.160;2023-01-08T16:56:52;10.60;99.90
57636;DHT22;43465;50.728;4.160;2023-01-08T16:59:18;10.60;99.90
57636;DHT22;43465;50.728;4.160;2023-01-08T17:01:44;10.70;99.90
57636;DHT22;43465;50.728;4.160;2023-01-08T17:04:10;10.70;99.90
57636;DHT22;43465;50.728;4.160;2023-01-08T17:06:36;10.70;99.90
57636;DHT22;43465;50.728;4.160;2023-01-08T17:09:02;10.60;99.90
57636;DHT22;43465;50.728;4.160;2023-01-08T17:11:28;10.70;99.90
57636;DHT22;43465;50.728;4.160;2023-01-08T17:13:56;10.70;99.90
57636;DHT22;43465;50.728;4.160;2023-01-08T17:16:22;10.70;99.90
57636;DHT22;43465;50.728;4.160;2023-01-08T17:18:48;10.70;99.90